Time;durP1;ratioP1;P1;durP2;ratioP2;P2;SDS_P1;SDS_P2;PMS_P1;PMS_P2;Temp;Humidity;BMP_temperature;BMP_pressure;BME280_temperature;BME280_humidity;BME280_pressure;Samples;Min_cycle;Max_cycle;Signal;HPM_P1;HPM_P2
2021/01/17 00:02:24;;;;;;;6.03;3.13;;;;;;;-4.67;87.05;101129.06;5007045;28;20523;-73
2021/01/17 00:04:50;;;;;;;6.50;3.33;;;;;;;-4.67;87.49;101131.63;5008684;28;20465;-73
2021/01/17 00:07:16;;;;;;;4.60;3.23;;;;;;;-4.69;87.30;101121.38;5008125;28;20761;-69
2021/01/17 00:09:42;;;;;;;5.23;3.40;;;;;;;-4.69;87.33;101112.88;5007616;28;20697;-71
2021/01/17 00:12:09;;;;;;;5.30;3.37;;;;;;;-4.74;87.40;101112.66;5006356;28;20216;-71
2021/01/17 00:14:36;;;;;;;5.77;3.70;;;;;;;-4.77;87.11;101112.53;5008912;28;20566;-69
2021/01/17 00:17:03;;;;;;;4.10;2.73;;;;;;;-4.78;87.96;101111.66;5008647;28;20472;-71
2021/01/17 00:19:29;;;;;;;4.17;3.17;;;;;;;-4.80;87.81;101109.84;5007077;28;20978;-69
2021/01/17 00:21:55;;;;;;;3.67;2.70;;;;;;;-4.77;87.38;101109.97;5003691;28;20460;-70
2021/01/17 00:24:20;;;;;;;4.43;3.43;;;;;;;-4.72;87.38;101110.19;5007587;28;20498;-70
2021/01/17 00:26:46;;;;;;;6.70;3.70;;;;;;;-4.69;87.77;101110.34;5009073;28;20208;-69
2021/01/17 00:29:12;;;;;;;5.53;3.40;;;;;;;-4.69;87.41;101111.19;5009292;28;20225;-69
2021/01/17 00:31:38;;;;;;;5.47;3.50;;;;;;;-4.65;88.05;101110.50;5009599;28;20208;-70
2021/01/17 00:34:05;;;;;;;6.10;3.50;;;;;;;-4.63;87.30;101115.66;5006688;28;20249;-70
2021/01/17 00:36:36;;;;;;;6.43;3.70;;;;;;;-4.60;87.30;101115.81;5006761;28;20198;-70
2021/01/17 00:39:03;;;;;;;4.70;3.03;;;;;;;-4.56;87.04;101117.69;5006153;28;20825;-70
2021/01/17 00:41:29;;;;;;;5.10;3.40;;;;;;;-4.52;86.96;101118.69;5004307;28;20463;-71
2021/01/17 00:43:55;;;;;;;5.33;3.30;;;;;;;-4.48;87.99;101115.47;5004365;28;20869;-70
2021/01/17 00:46:21;;;;;;;4.90;3.07;;;;;;;-4.46;88.20;101102.00;5004436;28;20547;-71
2021/01/17 00:48:47;;;;;;;5.63;3.47;;;;;;;-4.43;87.89;101104.69;5004679;28;20628;-69
2021/01/17 00:51:13;;;;;;;5.37;3.43;;;;;;;-4.39;88.36;101092.94;5004112;28;20222;-71
2021/01/17 00:53:39;;;;;;;5.03;3.23;;;;;;;-4.38;87.72;101103.19;5008138;28;20192;-71
2021/01/17 00:56:05;;;;;;;6.00;3.57;;;;;;;-4.35;88.01;101101.59;5006640;28;20528;-73
2021/01/17 00:58:32;;;;;;;6.33;3.60;;;;;;;-4.33;88.29;101089.78;5005354;28;20505;-70
2021/01/17 01:01:06;;;;;;;5.40;3.30;;;;;;;-4.33;87.87;101088.09;5008058;28;20529;-70
2021/01/17 01:03:36;;;;;;;6.80;3.53;;;;;;;-4.30;87.81;101089.91;5007124;28;20848;-69
2021/01/17 01:06:01;;;;;;;4.00;2.77;;;;;;;-4.26;88.15;101084.13;5007599;28;20489;-72
2021/01/17 01:08:28;;;;;;;5.27;3.37;;;;;;;-4.26;88.32;101071.41;5006531;28;20208;-70
2021/01/17 01:10:54;;;;;;;4.50;3.00;;;;;;;-4.26;87.95;101072.25;5005466;28;20248;-71
2021/01/17 01:13:20;;;;;;;5.10;3.43;;;;;;;-4.25;87.29;101068.91;5006012;28;20540;-70
2021/01/17 01:15:46;;;;;;;6.20;3.60;;;;;;;-4.23;87.79;101069.00;5007788;28;20442;-72
2021/01/17 01:18:12;;;;;;;6.53;3.33;;;;;;;-4.22;87.73;101061.41;5005243;28;20220;-70
2021/01/17 01:20:37;;;;;;;5.07;3.30;;;;;;;-4.23;87.16;101062.22;5008534;28;20237;-70
2021/01/17 01:23:03;;;;;;;6.37;3.43;;;;;;;-4.20;87.56;101057.25;5007538;28;20263;-72
2021/01/17 01:25:30;;;;;;;4.50;3.23;;;;;;;-4.18;86.93;101058.19;5008040;28;20215;-69
2021/01/17 01:27:56;;;;;;;5.30;3.07;;;;;;;-4.16;86.70;101059.94;5004109;28;20221;-70
2021/01/17 01:30:22;;;;;;;5.50;3.67;;;;;;;-4.16;86.75;101054.84;5007023;28;20481;-69
2021/01/17 01:32:52;;;;;;;5.63;3.30;;;;;;;-4.16;86.44;101058.25;5007615;28;20543;-69
2021/01/17 01:35:18;;;;;;;4.70;2.80;;;;;;;-4.14;86.45;101054.06;5006714;28;20865;-70
2021/01/17 01:37:44;;;;;;;4.90;3.40;;;;;;;-4.13;86.58;101049.84;5009519;28;20445;-70
2021/01/17 01:40:11;;;;;;;5.67;3.60;;;;;;;-4.13;86.12;101049.84;5008404;28;20977;-69
2021/01/17 01:42:44;;;;;;;5.20;3.40;;;;;;;-4.12;85.68;101046.50;5006099;28;20545;-69
2021/01/17 01:45:11;;;;;;;4.87;3.47;;;;;;;-4.10;85.91;101039.78;5008596;28;20500;-69
2021/01/17 01:47:38;;;;;;;5.67;3.70;;;;;;;-4.08;86.28;101043.25;5008926;28;20510;-69
2021/01/17 01:50:05;;;;;;;4.83;3.33;;;;;;;-4.10;85.95;101043.19;5008025;28;21014;-72
2021/01/17 01:52:31;;;;;;;5.00;3.03;;;;;;;-4.06;86.41;101041.66;5007310;28;20460;-69
2021/01/17 01:54:57;;;;;;;5.00;3.37;;;;;;;-4.07;85.94;101042.47;5005435;28;20504;-70
2021/01/17 01:57:23;;;;;;;5.17;3.50;;;;;;;-4.08;85.68;101044.16;5003756;28;20194;-70
2021/01/17 01:59:51;;;;;;;4.23;3.13;;;;;;;-4.08;85.72;101049.25;5003999;28;20516;-69
2021/01/17 02:02:18;;;;;;;6.27;4.00;;;;;;;-4.09;84.80;101052.59;5006262;28;20326;-70
2021/01/17 02:04:43;;;;;;;5.40;3.70;;;;;;;-4.08;84.67;101050.91;5005780;28;20482;-71
2021/01/17 02:07:29;;;;;;;5.70;3.70;;;;;;;-4.08;84.74;101045.81;5007421;28;20475;-70
2021/01/17 02:09:55;;;;;;;4.47;3.00;;;;;;;-4.09;84.91;101044.09;5006941;28;20591;-71
2021/01/17 02:12:27;;;;;;;5.30;3.47;;;;;;;-4.08;84.12;101056.00;5006851;28;20454;-70
2021/01/17 02:15:05;;;;;;;5.60;3.43;;;;;;;-4.09;84.50;101049.19;5007288;28;20207;-71
2021/01/17 02:17:33;;;;;;;4.83;3.17;;;;;;;-4.05;86.02;101051.88;5005258;28;20786;-71
2021/01/17 02:20:10;;;;;;;5.17;3.50;;;;;;;-4.08;85.00;101049.25;4997295;28;20493;-72
2021/01/17 02:22:44;;;;;;;5.20;3.57;;;;;;;-4.07;85.02;101056.06;4998374;28;20513;-69
2021/01/17 02:25:11;;;;;;;5.37;3.57;;;;;;;-4.06;85.71;101039.97;5004136;28;20481;-71
2021/01/17 02:27:40;;;;;;;6.20;3.43;;;;;;;-4.06;86.10;101047.63;5000735;28;20464;-72
2021/01/17 02:30:09;;;;;;;8.03;3.70;;;;;;;-4.09;83.99;101044.94;5006100;28;20484;-70
2021/01/17 02:32:38;;;;;;;5.40;3.27;;;;;;;-4.06;84.34;101051.84;5006123;28;20474;-69
2021/01/17 02:35:05;;;;;;;4.30;3.13;;;;;;;-4.05;85.54;101041.69;5006082;28;20468;-71
2021/01/17 02:37:40;;;;;;;5.50;3.47;;;;;;;-4.07;84.83;101043.31;5011123;28;20469;-70
2021/01/17 02:40:09;;;;;;;5.60;3.63;;;;;;;-4.07;84.48;101042.47;5011690;28;20846;-73
2021/01/17 02:42:37;;;;;;;5.23;3.57;;;;;;;-4.08;84.93;101041.59;5012232;28;20519;-69
2021/01/17 02:45:05;;;;;;;6.40;3.17;;;;;;;-4.06;85.01;101049.31;5012917;28;20473;-70
2021/01/17 02:47:30;;;;;;;5.13;3.27;;;;;;;-4.04;86.07;101045.13;5010378;28;20974;-71
2021/01/17 02:49:56;;;;;;;6.00;3.57;;;;;;;-4.07;84.81;101040.78;5014784;28;20471;-72
2021/01/17 02:52:33;;;;;;;5.67;3.40;;;;;;;-4.05;86.28;101041.69;5013660;28;20195;-70
2021/01/17 02:55:00;;;;;;;6.83;3.50;;;;;;;-4.05;85.58;101038.28;5012100;28;20198;-69
2021/01/17 02:57:27;;;;;;;4.30;3.00;;;;;;;-4.05;86.44;101040.84;5014176;28;20813;-71
2021/01/17 02:59:59;;;;;;;3.97;2.87;;;;;;;-4.08;85.09;101044.16;5012722;28;20488;-73
2021/01/17 03:02:29;;;;;;;4.47;3.07;;;;;;;-4.07;85.54;101042.47;5014119;28;20462;-69
2021/01/17 03:04:58;;;;;;;5.50;3.03;;;;;;;-4.07;85.72;101035.69;5010303;28;20476;-69
2021/01/17 03:07:25;;;;;;;5.60;3.67;;;;;;;-4.05;86.42;101041.69;5012163;28;20461;-69
2021/01/17 03:09:51;;;;;;;3.43;2.53;;;;;;;-4.06;86.11;101034.03;5015232;28;20489;-72
2021/01/17 03:12:16;;;;;;;6.57;3.40;;;;;;;-4.09;85.53;101034.75;5010322;28;20511;-71
2021/01/17 03:14:43;;;;;;;4.67;3.33;;;;;;;-4.09;86.16;101021.16;5010008;28;20942;-72
2021/01/17 03:17:11;;;;;;;4.93;3.40;;;;;;;-4.11;85.32;101026.19;5012637;28;20203;-69
2021/01/17 03:19:36;;;;;;;4.07;2.83;;;;;;;-4.11;85.11;101028.72;5010985;28;20487;-70
2021/01/17 03:22:03;;;;;;;4.10;3.17;;;;;;;-4.10;85.35;101032.13;5011818;28;21240;-72
2021/01/17 03:24:29;;;;;;;5.07;3.50;;;;;;;-4.08;86.19;101033.97;5013341;28;20215;-70
2021/01/17 03:26:55;;;;;;;5.07;3.53;;;;;;;-4.08;86.36;101033.06;5012949;28;20467;-69
2021/01/17 03:29:21;;;;;;;5.23;3.43;;;;;;;-4.10;86.26;101027.91;5013306;28;20496;-71
2021/01/17 03:31:47;;;;;;;6.67;4.43;;;;;;;-4.11;85.65;101036.38;5013371;28;20852;-69
2021/01/17 03:34:13;;;;;;;5.83;3.70;;;;;;;-4.11;85.74;101030.44;5012850;28;20202;-70
2021/01/17 03:36:40;;;;;;;5.53;3.43;;;;;;;-4.10;86.44;101029.59;5010731;28;20460;-71
2021/01/17 03:39:05;;;;;;;5.50;3.87;;;;;;;-4.10;86.20;101039.78;5014072;28;20463;-71
2021/01/17 03:41:31;;;;;;;4.90;3.30;;;;;;;-4.10;86.23;101039.78;5015147;28;20710;-72
2021/01/17 03:43:57;;;;;;;5.73;3.93;;;;;;;-4.12;85.61;101041.41;5013066;28;20209;-69
2021/01/17 03:46:24;;;;;;;5.70;3.33;;;;;;;-4.13;85.96;101040.53;5011994;28;20218;-72
2021/01/17 03:48:50;;;;;;;6.47;4.10;;;;;;;-4.11;86.66;101032.97;5010489;28;20281;-72
2021/01/17 03:51:17;;;;;;;5.13;3.67;;;;;;;-4.11;87.32;101030.44;5006526;28;20535;-70
2021/01/17 03:53:42;;;;;;;4.37;3.33;;;;;;;-4.11;87.13;101035.50;5008470;28;21018;-70
2021/01/17 03:56:08;;;;;;;5.83;3.93;;;;;;;-4.11;86.71;101035.50;5009925;28;20471;-71
2021/01/17 03:58:34;;;;;;;6.23;3.67;;;;;;;-4.08;87.19;101045.81;5010232;28;20234;-72
2021/01/17 04:01:00;;;;;;;6.60;3.57;;;;;;;-4.06;87.03;101044.22;5007771;28;20223;-69
2021/01/17 04:03:26;;;;;;;5.73;3.73;;;;;;;-4.09;86.20;101044.94;5009854;28;20207;-70
2021/01/17 04:05:52;;;;;;;9.40;4.00;;;;;;;-4.10;85.58;101042.34;5009184;28;20218;-70
2021/01/17 04:08:18;;;;;;;6.77;3.70;;;;;;;-4.08;88.10;101040.72;5011238;28;20211;-71
2021/01/17 04:10:44;;;;;;;5.27;3.50;;;;;;;-4.09;87.54;101041.53;5010087;28;20215;-69
2021/01/17 04:13:10;;;;;;;6.03;3.40;;;;;;;-4.09;88.00;101042.41;5009540;28;20455;-69
2021/01/17 04:15:36;;;;;;;5.30;3.63;;;;;;;-4.08;87.51;101043.25;5009109;28;20192;-70
2021/01/17 04:18:02;;;;;;;4.77;3.67;;;;;;;-4.08;87.45;101049.25;5009158;28;20214;-69
2021/01/17 04:20:28;;;;;;;4.77;3.30;;;;;;;-4.07;87.42;101047.56;5010081;28;20220;-70
2021/01/17 04:23:01;;;;;;;5.53;3.50;;;;;;;-4.05;87.81;101051.03;5009297;28;20231;-72
2021/01/17 04:25:28;;;;;;;6.17;3.90;;;;;;;-4.06;87.68;101054.41;5005147;28;20941;-70
2021/01/17 04:27:54;;;;;;;4.87;3.43;;;;;;;-4.03;88.31;101051.94;5009477;28;21055;-70
2021/01/17 04:30:20;;;;;;;4.93;3.43;;;;;;;-4.07;86.67;101065.38;5010195;28;20604;-71
2021/01/17 04:32:46;;;;;;;4.87;3.73;;;;;;;-4.07;86.77;101056.06;5008032;28;20203;-70
2021/01/17 04:35:13;;;;;;;5.30;3.77;;;;;;;-4.05;86.97;101064.63;5008136;28;20457;-71
2021/01/17 04:37:39;;;;;;;12.57;6.53;;;;;;;-4.04;87.62;101062.97;5007679;28;20288;-69
2021/01/17 04:40:06;;;;;;;5.53;3.47;;;;;;;-4.03;87.43;101064.69;5004546;28;20481;-69
2021/01/17 04:42:36;;;;;;;4.80;3.53;;;;;;;-3.98;88.71;101062.34;5008098;28;20507;-69
2021/01/17 04:45:04;;;;;;;7.50;3.83;;;;;;;-4.02;87.47;101064.75;5009768;28;20484;-70
2021/01/17 04:47:31;;;;;;;5.23;3.77;;;;;;;-3.97;88.49;101058.97;5005714;28;20823;-70
2021/01/17 04:50:01;;;;;;;4.97;3.73;;;;;;;-3.98;87.93;101058.09;5009251;28;20473;-71
2021/01/17 04:52:30;;;;;;;5.57;4.20;;;;;;;-3.97;88.40;101069.16;5007218;28;20835;-70
2021/01/17 04:54:57;;;;;;;4.97;3.47;;;;;;;-4.00;87.01;101067.38;5009316;28;20484;-71
2021/01/17 04:57:33;;;;;;;4.97;3.43;;;;;;;-4.01;87.02;101070.72;5008631;28;20457;-72
2021/01/17 05:00:07;;;;;;;5.90;3.47;;;;;;;-3.95;88.82;101062.47;5007988;28;20479;-71
2021/01/17 05:02:33;;;;;;;5.83;3.90;;;;;;;-3.95;88.46;101062.47;5006880;28;20469;-72
2021/01/17 05:05:09;;;;;;;5.70;3.47;;;;;;;-3.98;88.00;101070.84;5006508;28;20485;-70
2021/01/17 05:07:36;;;;;;;7.23;4.00;;;;;;;-4.01;87.33;101070.72;5000401;28;20530;-70
2021/01/17 05:10:06;;;;;;;5.47;3.43;;;;;;;-3.98;88.10;101067.44;5006142;28;20497;-69
2021/01/17 05:12:37;;;;;;;6.33;3.90;;;;;;;-4.02;87.40;101064.75;5007002;28;20561;-69
2021/01/17 05:15:06;;;;;;;4.73;3.47;;;;;;;-3.95;88.96;101070.13;5005407;28;20913;-69
2021/01/17 05:17:38;;;;;;;5.67;3.87;;;;;;;-3.94;89.17;101074.38;5009425;28;20472;-69
2021/01/17 05:20:05;;;;;;;5.43;3.30;;;;;;;-3.97;88.39;101067.50;5008718;28;20496;-70
2021/01/17 05:22:31;;;;;;;6.00;3.70;;;;;;;-3.98;88.41;101073.38;5002488;28;20468;-69
2021/01/17 05:24:58;;;;;;;6.27;4.03;;;;;;;-3.98;88.06;101072.53;5007290;28;20482;-72
2021/01/17 05:27:24;;;;;;;5.20;3.37;;;;;;;-3.98;88.30;101070.84;5009576;28;20512;-70
2021/01/17 05:29:50;;;;;;;5.37;3.37;;;;;;;-3.98;88.58;101072.53;5008879;28;20478;-69
2021/01/17 05:32:17;;;;;;;5.77;4.13;;;;;;;-3.98;88.45;101072.53;5006809;28;20866;-70
2021/01/17 05:34:43;;;;;;;6.57;4.17;;;;;;;-3.98;88.33;101075.94;5008066;28;20542;-70
2021/01/17 05:37:10;;;;;;;6.30;4.00;;;;;;;-3.98;88.24;101070.84;5008595;28;20493;-69
2021/01/17 05:39:54;;;;;;;5.50;4.43;;;;;;;-3.97;88.43;101074.25;5007713;28;20487;-70
2021/01/17 05:42:21;;;;;;;6.53;4.23;;;;;;;-3.95;89.00;101075.22;5008440;28;20574;-70
2021/01/17 05:44:47;;;;;;;7.30;4.30;;;;;;;-3.98;88.76;101077.63;5009408;28;20481;-69
2021/01/17 05:47:13;;;;;;;5.03;3.70;;;;;;;-3.97;89.09;101076.78;5005220;28;20458;-70
2021/01/17 05:49:39;;;;;;;6.40;4.20;;;;;;;-3.97;89.39;101072.59;5001223;28;20496;-69
2021/01/17 05:52:12;;;;;;;8.00;4.53;;;;;;;-3.97;89.19;101075.13;5002508;28;20664;-69
2021/01/17 05:54:40;;;;;;;7.30;4.50;;;;;;;-3.98;89.09;101075.06;5009272;28;20860;-70
2021/01/17 05:57:14;;;;;;;6.00;4.07;;;;;;;-3.98;89.32;101078.47;5006931;28;20479;-69
2021/01/17 05:59:40;;;;;;;6.47;4.17;;;;;;;-4.00;89.11;101078.41;5007396;28;21013;-70
2021/01/17 06:02:12;;;;;;;6.60;4.17;;;;;;;-3.96;90.01;101081.97;5008685;28;20458;-70
2021/01/17 06:04:41;;;;;;;5.67;3.87;;;;;;;-4.00;89.45;101080.09;5005776;28;20477;-70
2021/01/17 06:07:08;;;;;;;7.07;4.93;;;;;;;-3.99;nan;101086.94;5004569;28;20476;-69
2021/01/17 06:09:36;;;;;;;12.67;6.37;;;;;;;-3.97;90.13;101087.88;5007013;28;20493;-69
2021/01/17 06:12:03;;;;;;;9.83;5.30;;;;;;;-4.02;89.10;101099.56;5021545;28;20464;-71
2021/01/17 06:14:30;;;;;;;7.90;5.20;;;;;;;-4.00;89.47;101093.69;5006424;28;20454;-70
2021/01/17 06:17:01;;;;;;;7.60;4.30;;;;;;;-4.00;89.35;101098.78;5005961;28;20516;-72
2021/01/17 06:19:34;;;;;;;9.07;5.53;;;;;;;-3.96;90.21;101097.25;5005403;28;20506;-69
2021/01/17 06:22:04;;;;;;;7.27;5.10;;;;;;;-4.01;88.99;101097.06;5007884;28;21006;-70
2021/01/17 06:24:34;;;;;;;8.97;5.73;;;;;;;-4.05;87.94;101096.88;5007090;28;20458;-71
2021/01/17 06:27:02;;;;;;;7.13;5.03;;;;;;;-4.02;89.19;101092.78;5007890;28;20482;-71
2021/01/17 06:29:37;;;;;;;7.83;5.20;;;;;;;-4.02;89.45;101090.22;5002580;28;20554;-69
2021/01/17 06:32:13;;;;;;;9.93;5.83;;;;;;;-4.00;89.61;101093.69;5008199;28;20805;-71
2021/01/17 06:34:46;;;;;;;8.30;5.67;;;;;;;-3.96;89.76;101096.38;5006260;28;20533;-71
2021/01/17 06:37:14;;;;;;;12.53;7.10;;;;;;;-3.99;89.43;101092.06;5006024;28;20455;-70
2021/01/17 06:39:48;;;;;;;8.73;5.37;;;;;;;-4.02;88.98;101094.47;5004341;28;20481;-69
2021/01/17 06:42:15;;;;;;;7.50;5.00;;;;;;;-3.99;89.14;101097.16;5007539;28;20462;-69
2021/01/17 06:44:42;;;;;;;11.43;7.20;;;;;;;-3.99;89.08;101107.34;5007974;28;20492;-70
2021/01/17 06:47:17;;;;;;;9.07;5.50;;;;;;;-4.01;88.84;101107.28;5008194;28;21006;-71
2021/01/17 06:49:43;;;;;;;7.27;4.50;;;;;;;-3.98;89.22;101110.75;5007655;28;20473;-70
2021/01/17 06:52:10;;;;;;;6.70;4.80;;;;;;;-4.01;88.94;101114.91;5006120;28;20820;-70
2021/01/17 06:54:39;;;;;;;7.20;4.70;;;;;;;-3.98;89.38;101114.16;5007872;28;20965;-70
2021/01/17 06:57:06;;;;;;;8.90;5.13;;;;;;;-3.98;89.65;101115.84;5005943;28;20455;-69
2021/01/17 06:59:34;;;;;;;10.30;4.80;;;;;;;-3.97;89.54;101121.00;5002933;28;20988;-70
2021/01/17 07:02:30;;;;;;;6.77;4.33;;;;;;;-3.97;89.33;101122.66;5004557;28;20462;-70
2021/01/17 07:05:08;;;;;;;6.93;4.20;;;;;;;-3.93;90.47;101122.00;5004532;28;20611;-69
2021/01/17 07:07:42;;;;;;;8.67;5.13;;;;;;;-3.97;89.23;101125.19;5004672;28;20502;-70
2021/01/17 07:10:10;;;;;;;7.77;4.60;;;;;;;-3.96;89.40;101124.41;5006235;28;20488;-69
2021/01/17 07:12:46;;;;;;;5.57;3.87;;;;;;;-3.97;89.13;101125.19;5006685;28;20498;-70
2021/01/17 07:15:13;;;;;;;6.53;4.17;;;;;;;-3.96;89.25;101124.41;5005959;28;20503;-72
2021/01/17 07:17:41;;;;;;;8.20;4.67;;;;;;;-3.96;88.80;101129.50;5016930;28;20544;-71
2021/01/17 07:20:09;;;;;;;5.90;4.43;;;;;;;-3.95;88.82;101129.56;5004458;28;20481;-70
2021/01/17 07:22:35;;;;;;;6.27;4.30;;;;;;;-3.92;89.09;101127.16;5005056;28;20555;-70
2021/01/17 07:25:04;;;;;;;7.87;4.83;;;;;;;-3.90;89.77;101112.78;5001491;28;20482;-70
2021/01/17 07:28:02;;;;;;;6.20;4.37;;;;;;;-3.89;89.36;101117.06;5009934;28;20460;-69
2021/01/17 07:30:39;;;;;;;10.70;6.57;;;;;;;-3.86;89.14;101127.38;5010039;28;20484;-71
2021/01/17 07:33:07;;;;;;;8.57;5.33;;;;;;;-3.83;89.46;101124.97;5004633;28;21039;-69
2021/01/17 07:35:36;;;;;;;8.07;5.23;;;;;;;-3.80;89.58;101131.84;5010587;28;20967;-69
2021/01/17 07:38:09;;;;;;;7.53;4.53;;;;;;;-3.80;89.09;101131.84;5008607;28;20828;-70
2021/01/17 07:40:52;;;;;;;6.00;4.43;;;;;;;-3.79;89.14;101125.09;5006389;28;20858;-69
2021/01/17 07:43:25;;;;;;;5.97;3.93;;;;;;;-3.75;89.54;101134.59;5009782;28;20497;-69
2021/01/17 07:45:52;;;;;;;8.63;4.00;;;;;;;-3.74;89.08;101131.25;5008552;28;20470;-69
2021/01/17 07:48:18;;;;;;;8.60;4.67;;;;;;;-3.72;88.97;101133.03;5010706;28;21004;-69
2021/01/17 07:50:46;;;;;;;6.33;3.57;;;;;;;-3.70;88.74;101130.56;5007442;28;20477;-69
2021/01/17 07:53:39;;;;;;;4.77;3.33;;;;;;;-3.68;88.17;101136.59;5009250;28;20465;-70
2021/01/17 07:56:09;;;;;;;7.67;4.27;;;;;;;-3.69;87.86;101132.31;5007752;28;20541;-69
2021/01/17 07:58:41;;;;;;;6.83;4.30;;;;;;;-3.64;88.97;101135.88;5010782;28;20458;-71
2021/01/17 08:01:41;;;;;;;5.80;4.03;;;;;;;-3.65;87.40;101144.34;5005137;28;20493;-69
2021/01/17 08:04:25;;;;;;;7.63;4.77;;;;;;;-3.64;87.25;101135.88;5011065;28;20464;-72
2021/01/17 08:06:54;;;;;;;6.20;4.53;;;;;;;-3.62;87.23;101139.38;5007971;28;20458;-69
2021/01/17 08:09:45;;;;;;;6.33;4.30;;;;;;;-3.59;86.92;101136.94;5011317;28;20865;-69
2021/01/17 08:12:28;;;;;;;5.57;3.83;;;;;;;-3.54;86.36;101140.53;5010035;28;20810;-69
2021/01/17 08:15:10;;;;;;;7.27;4.90;;;;;;;-3.44;87.13;101141.78;5023462;28;20799;-71
2021/01/17 08:17:37;;;;;;;6.67;4.03;;;;;;;-3.45;86.77;101143.47;5007729;28;20459;-70
2021/01/17 08:20:06;;;;;;;10.77;5.73;;;;;;;-3.42;86.26;101142.72;5004431;28;20895;-70
2021/01/17 08:22:43;;;;;;;5.90;3.93;;;;;;;-3.38;85.41;101139.47;5008880;28;20459;-72
2021/01/17 08:25:12;;;;;;;6.47;4.57;;;;;;;-3.31;87.11;101136.34;5007549;28;20483;-71
2021/01/17 08:27:40;;;;;;;6.03;3.77;;;;;;;-3.30;86.22;101144.88;5005932;28;20525;-71
2021/01/17 08:30:20;;;;;;;5.47;4.03;;;;;;;-3.25;86.43;101151.88;5009720;28;20537;-70
2021/01/17 08:32:48;;;;;;;6.60;5.33;;;;;;;-3.19;86.67;101152.94;5006476;28;20459;-70
2021/01/17 08:35:36;;;;;;;7.00;4.67;;;;;;;-3.14;86.86;101153.97;5009415;28;20692;-70
2021/01/17 08:38:18;;;;;;;6.77;4.20;;;;;;;-3.11;85.73;101169.41;5000479;28;20505;-70
2021/01/17 08:40:51;;;;;;;5.73;3.87;;;;;;;-3.14;83.35;101165.03;5009537;28;20296;-71
2021/01/17 08:43:18;;;;;;;6.43;4.97;;;;;;;-3.14;83.21;101176.94;5009881;28;20478;-71
2021/01/17 08:45:46;;;;;;;9.93;5.27;;;;;;;-3.08;84.23;101178.06;5009784;28;20479;-70
2021/01/17 08:48:29;;;;;;;9.27;5.47;;;;;;;-3.02;83.90;101181.66;5007055;28;20222;-71
2021/01/17 08:50:56;;;;;;;7.97;5.17;;;;;;;-3.02;82.93;101186.75;5007494;28;20216;-71
2021/01/17 08:53:30;;;;;;;9.47;6.13;;;;;;;-3.01;82.59;101188.47;5010058;28;20201;-72
2021/01/17 08:56:01;;;;;;;23.87;11.77;;;;;;;-3.00;84.30;101191.09;5007934;28;20187;-73
2021/01/17 08:58:45;;;;;;;21.67;12.27;;;;;;;-2.91;84.57;101183.78;5017244;28;20213;-73
2021/01/17 09:01:13;;;;;;;9.77;6.40;;;;;;;-2.86;83.72;101184.81;5018932;28;20229;-72
2021/01/17 09:03:53;;;;;;;23.47;14.10;;;;;;;-2.77;84.88;101185.97;5009218;28;20288;-72
2021/01/17 09:06:24;;;;;;;14.70;9.70;;;;;;;-2.74;83.99;101198.88;5007489;28;20242;-74
2021/01/17 09:09:08;;;;;;;8.13;5.80;;;;;;;-2.72;83.34;101204.91;5006050;28;20207;-71
2021/01/17 09:11:40;;;;;;;9.13;5.93;;;;;;;-2.68;83.05;101206.75;5008507;28;20903;-72
2021/01/17 09:14:24;;;;;;;14.80;9.87;;;;;;;-2.74;82.72;101203.97;5008160;28;20254;-72
2021/01/17 09:16:53;;;;;;;10.83;7.77;;;;;;;-2.73;82.30;101211.66;5006169;28;20199;-72
2021/01/17 09:19:24;;;;;;;9.80;6.13;;;;;;;-2.69;83.14;101203.31;5005796;28;20228;-74
2021/01/17 09:21:51;;;;;;;10.60;6.27;;;;;;;-2.64;82.82;101207.72;5008046;28;20215;-72
2021/01/17 09:24:19;;;;;;;7.60;5.10;;;;;;;-2.62;82.90;101212.09;5009048;28;20562;-72
2021/01/17 09:26:48;;;;;;;8.47;4.90;;;;;;;-2.57;82.41;101218.22;5005999;28;20247;-72
2021/01/17 09:29:36;;;;;;;7.27;4.70;;;;;;;-2.55;81.73;101225.94;5007625;28;20267;-73
2021/01/17 09:32:07;;;;;;;7.70;4.40;;;;;;;-2.48;82.32;101222.78;5001021;28;20665;-72
2021/01/17 09:34:35;;;;;;;6.97;4.40;;;;;;;-2.49;81.10;101228.72;5006274;28;20872;-73
2021/01/17 09:37:03;;;;;;;7.10;4.87;;;;;;;-2.47;82.64;101227.94;5006740;28;20205;-73
2021/01/17 09:39:31;;;;;;;5.87;4.17;;;;;;;-2.42;83.31;101230.69;5004219;28;20236;-75
2021/01/17 09:41:58;;;;;;;11.17;8.13;;;;;;;-2.41;82.31;101231.53;5009475;28;20204;-74
2021/01/17 09:44:25;;;;;;;7.77;4.57;;;;;;;-2.51;80.28;101233.75;5006411;28;20196;-72
2021/01/17 09:46:50;;;;;;;6.93;4.13;;;;;;;-2.53;80.92;101240.50;5006901;28;20233;-71
2021/01/17 09:49:22;;;;;;;8.20;4.60;;;;;;;-2.51;81.60;101243.13;5005077;28;20228;-72
2021/01/17 09:51:48;;;;;;;9.87;6.03;;;;;;;-2.47;81.90;101240.72;5006943;28;20208;-71
2021/01/17 09:54:14;;;;;;;7.50;5.10;;;;;;;-2.40;82.51;101246.06;5005935;28;20250;-75
2021/01/17 09:56:41;;;;;;;6.90;4.63;;;;;;;-2.34;82.46;101236.94;5008213;28;20613;-72
2021/01/17 09:59:12;;;;;;;7.50;4.37;;;;;;;-2.26;82.93;101234.66;5001783;28;20208;-71
2021/01/17 10:01:38;;;;;;;7.87;5.17;;;;;;;-2.28;81.47;101239.72;5006984;28;20662;-73
2021/01/17 10:04:04;;;;;;;8.17;4.43;;;;;;;-2.25;82.09;101243.19;5004262;28;20333;-73
2021/01/17 10:06:33;;;;;;;6.37;4.70;;;;;;;-2.26;82.18;101233.78;4989365;28;20617;-72
2021/01/17 10:08:59;;;;;;;7.73;4.50;;;;;;;-2.24;81.25;101240.69;4987136;28;20201;-69
2021/01/17 10:11:25;;;;;;;8.00;5.03;;;;;;;-2.25;81.27;101235.50;4986377;28;20193;-72
2021/01/17 10:13:51;;;;;;;7.63;4.93;;;;;;;-2.21;81.16;101245.06;4987754;28;20530;-72
2021/01/17 10:16:24;;;;;;;7.07;4.60;;;;;;;-2.24;80.55;101244.94;4985813;28;20647;-73
2021/01/17 10:18:51;;;;;;;5.97;4.20;;;;;;;-2.24;81.21;101255.16;4988391;28;20201;-72
2021/01/17 10:21:18;;;;;;;7.53;5.13;;;;;;;-2.21;81.27;101251.03;4984846;28;20713;-73
2021/01/17 10:23:44;;;;;;;9.13;6.07;;;;;;;-2.17;82.76;101247.75;4987823;28;20567;-71
2021/01/17 10:26:12;;;;;;;7.37;4.40;;;;;;;-2.27;81.14;101243.13;4988301;28;20217;-72
2021/01/17 10:28:38;;;;;;;8.00;4.27;;;;;;;-2.40;80.54;101249.47;4988293;28;20197;-72
2021/01/17 10:31:04;;;;;;;7.73;4.67;;;;;;;-2.38;81.21;101254.66;4987343;28;20220;-72
2021/01/17 10:33:31;;;;;;;10.07;5.90;;;;;;;-2.33;81.75;101253.13;4984405;28;20327;-73
2021/01/17 10:35:57;;;;;;;8.03;4.60;;;;;;;-2.36;81.66;101256.44;4988725;28;20197;-73
2021/01/17 10:38:23;;;;;;;7.60;4.40;;;;;;;-2.37;82.08;101254.72;4990834;28;20212;-72
2021/01/17 10:40:50;;;;;;;8.67;4.93;;;;;;;-2.41;82.24;101259.63;4989624;28;20493;-71
2021/01/17 10:43:28;;;;;;;7.37;4.33;;;;;;;-2.41;81.86;101259.63;4990145;28;20204;-74
2021/01/17 10:46:02;;;;;;;6.57;4.10;;;;;;;-2.35;82.43;101263.28;4986929;28;20232;-72
2021/01/17 10:48:28;;;;;;;9.40;4.57;;;;;;;-2.31;82.31;101265.13;4986529;28;20201;-71
2021/01/17 10:51:00;;;;;;;6.83;4.17;;;;;;;-2.31;82.08;101262.56;4987118;28;20221;-73
2021/01/17 10:53:31;;;;;;;7.80;4.40;;;;;;;-2.34;81.42;101266.72;4987275;28;20197;-72
2021/01/17 10:55:58;;;;;;;6.50;4.20;;;;;;;-2.35;82.28;101257.31;4987289;28;20212;-74
2021/01/17 10:58:26;;;;;;;7.70;4.50;;;;;;;-2.31;82.73;101260.03;4988185;28;20197;-71
2021/01/17 11:00:53;;;;;;;9.20;5.00;;;;;;;-2.29;82.81;101258.41;4994398;28;20229;-71
2021/01/17 11:03:28;;;;;;;6.27;4.10;;;;;;;-2.40;81.55;101271.59;4994061;28;20205;-71
2021/01/17 11:06:05;;;;;;;8.47;4.27;;;;;;;-2.40;81.29;101275.03;4989445;28;20219;-75
2021/01/17 11:08:34;;;;;;;6.93;4.53;;;;;;;-2.34;82.04;101271.81;4992347;28;20255;-74
2021/01/17 11:11:00;;;;;;;7.93;4.20;;;;;;;-2.32;81.70;101272.78;4995317;28;20225;-71
2021/01/17 11:13:26;;;;;;;4.87;3.43;;;;;;;-2.38;82.85;101272.53;4992071;28;20303;-72
2021/01/17 11:15:52;;;;;;;6.37;4.00;;;;;;;-2.36;82.50;101271.75;4996549;28;20710;-74
2021/01/17 11:18:20;;;;;;;9.17;4.80;;;;;;;-2.34;81.43;101277.81;4991904;28;20212;-74
2021/01/17 11:20:47;;;;;;;7.50;4.30;;;;;;;-2.29;82.03;101280.53;4993726;28;20237;-72
2021/01/17 11:23:13;;;;;;;8.37;4.67;;;;;;;-2.29;81.43;101286.53;4992839;28;20200;-71
2021/01/17 11:25:39;;;;;;;7.63;3.97;;;;;;;-2.25;81.78;101287.50;4991303;28;20217;-73
2021/01/17 11:28:06;;;;;;;8.07;4.50;;;;;;;-2.21;82.80;101285.94;4992891;28;20321;-73
2021/01/17 11:30:33;;;;;;;6.83;4.13;;;;;;;-2.26;81.20;101285.75;4989756;28;20217;-71
2021/01/17 11:33:09;;;;;;;5.90;3.60;;;;;;;-2.38;81.13;101292.97;4990683;28;20256;-73
2021/01/17 11:35:36;;;;;;;5.97;3.90;;;;;;;-2.38;81.74;101286.16;4990006;28;20647;-73